Time;durP1;ratioP1;P1;durP2;ratioP2;P2;SDS_P1;SDS_P2;PMS_P1;PMS_P2;Temp;Humidity;BMP_temperature;BMP_pressure;BME280_temperature;BME280_humidity;BME280_pressure;Samples;Min_cycle;Max_cycle;Signal;HPM_P1;HPM_P2
2022/08/19 00:02:09;;;;;;;;;;;;;;;27.34;98.94;98660.97;5075796;27;20526;-89
2022/08/19 00:04:36;;;;;;;;;;;;;;;27.09;98.84;98674.13;5072447;28;19954;-90
2022/08/19 00:07:05;;;;;;;;;;;;;;;26.22;100.00;98697.22;5073399;27;19997;-90
2022/08/19 00:09:31;;;;;;;;;;;;;;;26.03;100.00;98708.00;5077996;27;19954;-90
2022/08/19 00:12:03;;;;;;;;;;;;;;;26.59;100.00;98690.00;5076259;27;19959;-90
2022/08/19 00:14:31;;;;;;;;;;;;;;;26.98;100.00;98692.97;5082832;27;19938;-91
2022/08/19 00:16:56;;;;;;;;;;;;;;;27.04;100.00;98680.91;5092322;27;20039;-91
2022/08/19 00:19:22;;;;;;;;;;;;;;;26.79;100.00;98687.94;5078379;28;20340;-90
2022/08/19 00:21:47;;;;;;;;;;;;;;;26.56;100.00;98691.16;5075782;27;20629;-90
2022/08/19 00:24:15;;;;;;;;;;;;;;;26.38;100.00;98691.22;5076256;27;20420;-90
2022/08/19 00:26:41;;;;;;;;;;;;;;;26.17;100.00;98699.53;5075581;28;19931;-90
2022/08/19 00:29:07;;;;;;;;;;;;;;;25.74;100.00;98693.25;5083512;28;19919;-90
2022/08/19 00:31:35;;;;;;;;;;;;;;;26.11;100.00;98684.31;5071789;28;19938;-90
2022/08/19 00:34:01;;;;;;;;;;;;;;;26.44;100.00;98673.94;5089003;28;20380;-90
2022/08/19 00:36:28;;;;;;;;;;;;;;;26.97;100.00;98674.63;5064191;27;19929;-90
2022/08/19 00:38:54;;;;;;;;;;;;;;;27.00;100.00;98675.09;5064931;28;19916;-90
2022/08/19 00:41:21;;;;;;;;;;;;;;;26.02;100.00;98696.66;5090266;27;19916;-90
2022/08/19 00:44:02;;;;;;;;;;;;;;;25.37;100.00;98694.28;5074607;27;19946;-91
2022/08/19 00:46:28;;;;;;;;;;;;;;;25.76;100.00;98687.84;5067566;28;19919;-90
2022/08/19 00:48:53;;;;;;;;;;;;;;;26.00;100.00;98681.91;5083426;28;19927;-91
2022/08/19 00:51:19;;;;;;;;;;;;;;;26.48;100.00;98683.19;5074905;28;19915;-90
2022/08/19 00:53:44;;;;;;;;;;;;;;;26.53;100.00;98686.19;5076902;28;20333;-91
2022/08/19 00:56:09;;;;;;;;;;;;;;;26.04;100.00;98691.19;5077220;27;19915;-91
2022/08/19 00:58:35;;;;;;;;;;;;;;;26.15;100.00;98679.56;5074685;27;19916;-90
2022/08/19 01:01:01;;;;;;;;;;;;;;;26.58;100.00;98680.44;5062874;28;19990;-91
2022/08/19 01:03:28;;;;;;;;;;;;;;;26.69;100.00;98672.25;5084098;28;19969;-90
2022/08/19 01:05:54;;;;;;;;;;;;;;;26.68;100.00;98665.28;5073836;28;20363;-90
2022/08/19 01:08:20;;;;;;;;;;;;;;;26.71;100.00;98664.97;5092558;28;19915;-91
2022/08/19 01:10:53;;;;;;;;;;;;;;;26.46;100.00;98671.97;5063139;28;19958;-90
2022/08/19 01:13:19;;;;;;;;;;;;;;;25.90;100.00;98681.22;5072905;28;19927;-90
2022/08/19 01:15:49;;;;;;;;;;;;;;;26.02;100.00;98669.41;5087790;28;20154;-91
2022/08/19 01:18:15;;;;;;;;;;;;;;;26.11;100.00;98672.91;5083619;28;19963;-91
2022/08/19 01:20:41;;;;;;;;;;;;;;;25.78;100.00;98684.06;5083092;28;19920;-91
2022/08/19 01:23:06;;;;;;;;;;;;;;;25.59;100.00;98681.59;5099162;28;20271;-91
2022/08/19 01:25:50;;;;;;;;;;;;;;;25.60;100.00;98678.00;5086247;28;19928;-91
2022/08/19 01:28:18;;;;;;;;;;;;;;;25.79;100.00;98669.88;5086415;28;20314;-90
2022/08/19 01:30:44;;;;;;;;;;;;;;;25.90;100.00;98670.66;5083918;27;19923;-91
2022/08/19 01:33:09;;;;;;;;;;;;;;;25.85;100.00;98673.72;5090549;27;20036;-91
2022/08/19 01:35:34;;;;;;;;;;;;;;;26.21;100.00;98661.28;5055240;28;20015;-90
2022/08/19 01:38:01;;;;;;;;;;;;;;;26.07;100.00;98656.59;5077222;28;19931;-91
2022/08/19 01:40:29;;;;;;;;;;;;;;;25.87;100.00;98655.97;5071992;28;19927;-91
2022/08/19 01:42:56;;;;;;;;;;;;;;;25.13;100.00;98657.13;5084065;27;19915;-91
2022/08/19 01:45:23;;;;;;;;;;;;;;;24.73;100.00;98661.00;5077273;28;20361;-91
2022/08/19 01:47:49;;;;;;;;;;;;;;;24.65;100.00;98663.53;5069699;27;19969;-91
2022/08/19 01:50:16;;;;;;;;;;;;;;;24.94;100.00;98656.28;5073941;27;20391;-91
2022/08/19 01:52:45;;;;;;;;;;;;;;;25.34;100.00;98651.56;5087856;27;19969;-91
2022/08/19 01:55:12;;;;;;;;;;;;;;;25.33;100.00;98657.84;5089728;27;19916;-91
2022/08/19 01:57:37;;;;;;;;;;;;;;;25.63;100.00;98646.03;5091193;27;19923;-91
2022/08/19 02:00:07;;;;;;;;;;;;;;;25.26;100.00;98652.34;5069798;27;19946;-91
2022/08/19 02:02:33;;;;;;;;;;;;;;;25.30;100.00;98658.97;5065244;27;19992;-91
2022/08/19 02:04:58;;;;;;;;;;;;;;;24.99;100.00;98656.66;5088012;27;20408;-90
2022/08/19 02:07:26;;;;;;;;;;;;;;;24.33;100.00;98660.31;5068720;27;20173;-91
2022/08/19 02:09:51;;;;;;;;;;;;;;;24.79;100.00;98647.22;5070700;27;20318;-91
2022/08/19 02:12:16;;;;;;;;;;;;;;;24.85;100.00;98644.00;5068855;27;19920;-91
2022/08/19 02:14:42;;;;;;;;;;;;;;;25.51;100.00;98642.00;5071191;27;20375;-91
2022/08/19 02:17:08;;;;;;;;;;;;;;;25.94;100.00;98629.78;5087557;28;20546;-91
2022/08/19 02:19:33;;;;;;;;;;;;;;;25.92;100.00;98627.31;5059424;28;20041;-91
2022/08/19 02:21:59;;;;;;;;;;;;;;;25.31;100.00;98633.44;5085896;27;19919;-91
2022/08/19 02:24:24;;;;;;;;;;;;;;;25.46;100.00;98635.38;5091845;27;20106;-91
2022/08/19 02:26:51;;;;;;;;;;;;;;;25.47;100.00;98644.09;5087210;27;19941;-92
2022/08/19 02:29:16;;;;;;;;;;;;;;;25.71;100.00;98651.38;5071917;27;19919;-91
2022/08/19 02:31:41;;;;;;;;;;;;;;;25.53;100.00;98647.94;5081729;27;20130;-91
2022/08/19 02:34:06;;;;;;;;;;;;;;;25.78;100.00;98647.13;5084001;28;20023;-91
2022/08/19 02:36:32;;;;;;;;;;;;;;;25.87;100.00;98635.69;5064465;28;20007;-90
2022/08/19 02:38:57;;;;;;;;;;;;;;;25.90;100.00;98633.72;5079556;27;20637;-91
2022/08/19 02:41:24;;;;;;;;;;;;;;;25.94;100.00;98632.44;5071070;27;20486;-90
2022/08/19 02:43:49;;;;;;;;;;;;;;;25.65;100.00;98647.53;5058486;28;19920;-91
2022/08/19 02:46:20;;;;;;;;;;;;;;;25.84;100.00;98630.69;5083444;27;19927;-91
2022/08/19 02:48:46;;;;;;;;;;;;;;;25.90;100.00;98631.09;5082367;27;19926;-91
2022/08/19 02:51:15;;;;;;;;;;;;;;;25.85;100.00;98627.06;5086405;28;19916;-90
2022/08/19 02:53:40;;;;;;;;;;;;;;;25.90;100.00;98634.53;5087913;27;19962;-91
2022/08/19 02:56:07;;;;;;;;;;;;;;;25.88;100.00;98632.03;5107072;27;20047;-90
2022/08/19 02:58:32;;;;;;;;;;;;;;;25.91;100.00;98635.34;5070750;27;19939;-91
2022/08/19 03:00:58;;;;;;;;;;;;;;;25.86;100.00;98628.72;5068382;27;20167;-90
2022/08/19 03:03:23;;;;;;;;;;;;;;;25.50;100.00;98627.16;5061489;27;19920;-90
2022/08/19 03:05:48;;;;;;;;;;;;;;;25.23;100.00;98642.09;5069462;27;19927;-91
2022/08/19 03:08:14;;;;;;;;;;;;;;;24.16;100.00;98648.75;5072942;27;20414;-90
2022/08/19 03:10:44;;;;;;;;;;;;;;;24.92;100.00;98639.78;5070059;27;19919;-90
2022/08/19 03:13:10;;;;;;;;;;;;;;;24.55;100.00;98648.63;5088698;27;20170;-90
2022/08/19 03:15:38;;;;;;;;;;;;;;;24.19;100.00;98652.91;5087574;27;19924;-90
2022/08/19 03:18:03;;;;;;;;;;;;;;;23.85;100.00;98652.59;5070582;27;19924;-90
2022/08/19 03:20:29;;;;;;;;;;;;;;;23.99;100.00;98652.13;5071196;27;19972;-90
2022/08/19 03:22:54;;;;;;;;;;;;;;;25.10;100.00;98638.97;5069415;27;20364;-91
2022/08/19 03:25:19;;;;;;;;;;;;;;;25.54;100.00;98639.03;5069357;27;19916;-91
2022/08/19 03:27:48;;;;;;;;;;;;;;;25.55;100.00;98630.16;5071849;27;19915;-91
2022/08/19 03:30:13;;;;;;;;;;;;;;;25.48;100.00;98644.91;5071467;27;19972;-92
2022/08/19 03:32:39;;;;;;;;;;;;;;;25.60;100.00;98655.09;5069742;27;19923;-91
2022/08/19 03:35:04;;;;;;;;;;;;;;;25.43;100.00;98650.66;5068393;27;19928;-92
2022/08/19 03:37:30;;;;;;;;;;;;;;;25.18;100.00;98654.84;5068978;27;20330;-91
2022/08/19 03:39:55;;;;;;;;;;;;;;;24.97;100.00;98657.78;5070314;27;19919;-91
2022/08/19 03:42:20;;;;;;;;;;;;;;;25.14;100.00;98664.06;5069791;27;20380;-91
2022/08/19 03:44:46;;;;;;;;;;;;;;;25.32;100.00;98662.28;5086256;27;20383;-90
2022/08/19 03:47:15;;;;;;;;;;;;;;;25.53;100.00;98655.84;5069119;27;20341;-92
2022/08/19 03:49:41;;;;;;;;;;;;;;;25.58;100.00;98653.59;5063761;28;19946;-92
2022/08/19 03:52:08;;;;;;;;;;;;;;;25.40;100.00;98657.06;5083826;28;20234;-92
2022/08/19 03:54:34;;;;;;;;;;;;;;;25.32;100.00;98667.56;5066371;28;19931;-92
2022/08/19 03:56:59;;;;;;;;;;;;;;;25.21;100.00;98670.41;5082737;28;19916;-91
2022/08/19 03:59:29;;;;;;;;;;;;;;;25.36;100.00;98674.19;5069637;27;19927;-92
2022/08/19 04:01:55;;;;;;;;;;;;;;;25.24;100.00;98676.19;5071184;27;20999;-86
2022/08/19 04:04:21;;;;;;;;;;;;;;;25.27;100.00;98675.06;5112112;27;20284;-90
2022/08/19 04:06:46;;;;;;;;;;;;;;;24.51;100.00;98670.94;5092545;27;19915;-90
2022/08/19 04:09:12;;;;;;;;;;;;;;;24.45;100.00;98679.41;5070145;27;19920;-91
2022/08/19 04:11:41;;;;;;;;;;;;;;;24.75;100.00;98680.13;5085327;27;19915;-91
2022/08/19 04:14:10;;;;;;;;;;;;;;;24.94;100.00;98679.16;5086974;27;19916;-92
2022/08/19 04:16:35;;;;;;;;;;;;;;;25.36;100.00;98679.47;5085807;28;20026;-91
2022/08/19 04:19:01;;;;;;;;;;;;;;;25.43;100.00;98675.22;5086118;27;19923;-91
2022/08/19 04:21:29;;;;;;;;;;;;;;;25.45;100.00;98670.63;5074662;28;19927;-91
2022/08/19 04:23:55;;;;;;;;;;;;;;;25.29;100.00;98678.38;5066202;28;20099;-91
2022/08/19 04:26:22;;;;;;;;;;;;;;;25.19;100.00;98677.63;5079429;27;19944;-91
2022/08/19 04:28:47;;;;;;;;;;;;;;;25.23;100.00;98684.28;5080021;28;19961;-91
2022/08/19 04:31:18;;;;;;;;;;;;;;;25.29;100.00;98678.38;5052799;28;19962;-91
2022/08/19 04:33:43;;;;;;;;;;;;;;;25.36;100.00;98681.25;5073976;27;19926;-91
2022/08/19 04:36:17;;;;;;;;;;;;;;;25.08;100.00;98673.38;5083374;27;20206;-91
2022/08/19 04:38:43;;;;;;;;;;;;;;;24.76;100.00;98682.59;5074966;28;20023;-91
2022/08/19 04:43:52;;;;;;;;;;;;;;;25.35;100.00;98672.50;5086708;28;19982;-92
2022/08/19 04:46:19;;;;;;;;;;;;;;;25.37;100.00;98670.56;5069082;27;20929;-89
2022/08/19 04:48:47;;;;;;;;;;;;;;;25.27;100.00;98674.25;5077954;27;19954;-90
2022/08/19 04:51:13;;;;;;;;;;;;;;;25.18;100.00;98675.94;5090706;27;19916;-90
2022/08/19 04:53:39;;;;;;;;;;;;;;;25.05;100.00;98678.97;5070966;28;20002;-92
2022/08/19 04:56:08;;;;;;;;;;;;;;;24.83;100.00;98669.66;5064638;28;20494;-90
2022/08/19 04:58:34;;;;;;;;;;;;;;;24.86;100.00;98679.91;5081178;28;19924;-89
2022/08/19 05:01:02;;;;;;;;;;;;;;;24.96;100.00;98685.94;5087409;27;19977;-91
2022/08/19 05:03:33;;;;;;;;;;;;;;;25.14;100.00;98685.13;5054760;28;19969;-89
2022/08/19 05:06:00;;;;;;;;;;;;;;;25.20;100.00;98676.66;5089444;28;19920;-90
2022/08/19 05:08:26;;;;;;;;;;;;;;;25.11;100.00;98683.63;5061837;28;20077;-91
2022/08/19 05:10:51;;;;;;;;;;;;;;;25.39;100.00;98687.06;5060924;28;20292;-90
2022/08/19 05:13:17;;;;;;;;;;;;;;;25.51;100.00;98692.91;5086976;28;19962;-90
2022/08/19 05:15:45;;;;;;;;;;;;;;;25.53;100.00;98685.69;5073468;28;20439;-91
2022/08/19 05:30:30;;;;;;;;;;;;;;;25.37;100.00;98702.19;5046933;28;19967;-89
2022/08/19 05:35:48;;;;;;;;;;;;;;;25.63;100.00;98701.41;5049125;28;19924;-89
2022/08/19 05:41:09;;;;;;;;;;;;;;;25.92;100.00;98690.63;5077486;28;19919;-83
2022/08/19 05:47:13;;;;;;;;;;;;;;;25.89;100.00;98696.22;5024950;28;19924;-90
2022/08/19 05:50:45;;;;;;;;;;;;;;;25.77;100.00;98690.34;5019657;28;19918;-89
2022/08/19 05:54:18;;;;;;;;;;;;;;;;;;;;;
2022/08/19 06:06:04;;;;;;;;;;;;;;;;;;;;;
2022/08/19 06:08:42;;;;;;;;;;;;;;;26.80;100.00;98669.31;4925673;28;20178;-89
2022/08/19 06:11:12;;;;;;;;;;;;;;;26.97;100.00;98678.09;5035567;28;19916;-89
2022/08/19 06:13:38;;;;;;;;;;;;;;;26.69;100.00;98665.13;5071260;28;19946;-86
2022/08/19 06:16:04;;;;;;;;;;;;;;;26.46;100.00;98666.69;5068015;28;19973;-88
2022/08/19 06:18:29;;;;;;;;;;;;;;;27.37;100.00;98660.66;5087138;27;20036;-89
2022/08/19 06:20:55;;;;;;;;;;;;;;;27.68;100.00;98667.91;5073412;27;20176;-89
2022/08/19 06:23:21;;;;;;;;;;;;;;;27.66;100.00;98672.53;5064350;27;20210;-89
2022/08/19 06:25:49;;;;;;;;;;;;;;;27.64;100.00;98679.81;5089254;27;19923;-88
2022/08/19 06:28:14;;;;;;;;;;;;;;;27.22;100.00;98678.16;5089467;27;20374;-88
2022/08/19 06:30:39;;;;;;;;;;;;;;;27.58;100.00;98672.56;5095943;28;19915;-87
2022/08/19 06:33:05;;;;;;;;;;;;;;;27.77;100.00;98674.84;5072457;27;19956;-91
2022/08/19 06:35:30;;;;;;;;;;;;;;;28.25;100.00;98681.06;5085107;27;19919;-91
2022/08/19 06:37:55;;;;;;;;;;;;;;;28.20;100.00;98675.47;5087202;27;19920;-91
2022/08/19 06:40:23;;;;;;;;;;;;;;;28.56;100.00;98667.09;5090663;27;19959;-89
2022/08/19 06:42:50;;;;;;;;;;;;;;;28.66;100.00;98661.56;5067360;28;20369;-91
2022/08/19 06:45:17;;;;;;;;;;;;;;;28.55;100.00;98660.13;5097702;27;20304;-90
2022/08/19 06:47:45;;;;;;;;;;;;;;;29.22;100.00;98672.03;5064366;28;19916;-91
2022/08/19 06:50:11;;;;;;;;;;;;;;;28.22;100.00;98689.38;5083190;27;20091;-90
2022/08/19 06:52:36;;;;;;;;;;;;;;;28.24;100.00;98690.03;5073633;27;19980;-90
2022/08/19 06:55:02;;;;;;;;;;;;;;;28.53;100.00;98688.63;5071832;27;19916;-91
2022/08/19 06:57:34;;;;;;;;;;;;;;;28.71;100.00;98681.25;5071824;27;20006;-90
2022/08/19 07:00:00;;;;;;;;;;;;;;;28.69;100.00;98685.91;5060844;28;19916;-90
2022/08/19 07:02:26;;;;;;;;;;;;;;;28.90;100.00;98684.50;5076790;28;19922;-90
2022/08/19 07:04:52;;;;;;;;;;;;;;;29.29;100.00;98679.13;5089621;27;19963;-90
2022/08/19 07:07:17;;;;;;;;;;;;;;;29.26;100.00;98683.94;5103766;27;20011;-88
2022/08/19 07:09:43;;;;;;;;;;;;;;;28.47;100.00;98686.69;5094323;27;19955;-90
2022/08/19 07:12:09;;;;;;;;;;;;;;;29.08;100.00;98687.72;5082305;27;19916;-90
2022/08/19 07:14:37;;;;;;;;;;;;;;;29.56;100.00;98691.00;5079580;27;20057;-90
2022/08/19 07:17:04;;;;;;;;;;;;;;;29.03;100.00;98691.84;5091771;27;19915;-90
2022/08/19 07:19:29;;;;;;;;;;;;;;;29.77;100.00;98700.16;5092283;27;20005;-88
2022/08/19 07:21:55;;;;;;;;;;;;;;;30.03;100.00;98697.06;5070621;27;20678;-88
2022/08/19 07:24:23;;;;;;;;;;;;;;;29.70;99.91;98707.19;5071321;27;20558;-88
2022/08/19 07:26:48;;;;;;;;;;;;;;;29.19;100.00;98719.16;5114743;27;20376;-88
2022/08/19 07:32:09;;;;;;;;;;;;;;;28.65;100.00;98727.00;5085386;27;20042;-87
2022/08/19 07:34:37;;;;;;;;;;;;;;;28.49;100.00;98719.94;5083203;27;19916;-85
2022/08/19 07:37:03;;;;;;;;;;;;;;;28.25;100.00;98726.09;5093894;27;19960;-86
2022/08/19 07:39:30;;;;;;;;;;;;;;;28.87;100.00;98719.28;5085458;27;19915;-85
2022/08/19 07:41:55;;;;;;;;;;;;;;;28.44;100.00;98727.56;5078194;27;19916;-85
2022/08/19 07:44:21;;;;;;;;;;;;;;;28.74;100.00;98728.63;5093091;27;19949;-85
2022/08/19 07:46:48;;;;;;;;;;;;;;;27.30;100.00;98731.88;5118929;27;19922;-89
2022/08/19 07:49:23;;;;;;;;;;;;;;;28.06;100.00;98729.13;5081374;27;19920;-89
2022/08/19 07:52:01;;;;;;;;;;;;;;;28.30;100.00;98742.28;5113294;27;19934;-86
2022/08/19 07:54:27;;;;;;;;;;;;;;;29.27;100.00;98736.81;5102173;27;19919;-87
2022/08/19 07:56:52;;;;;;;;;;;;;;;26.69;100.00;98754.94;5111599;27;20624;-87
2022/08/19 07:59:19;;;;;;;;;;;;;;;27.47;100.00;98756.53;5104202;27;19919;-87
2022/08/19 08:01:44;;;;;;;;;;;;;;;27.32;100.00;98766.09;5094654;27;20349;-87
2022/08/19 08:09:38;;;;;;;;;;;;;;;28.50;100.00;98752.56;5072964;28;20013;-88
2022/08/19 08:12:10;;;;;;;;;;;;;;;28.47;100.00;98739.66;5061804;28;19923;-90
2022/08/19 08:14:48;;;;;;;;;;;;;;;29.66;100.00;98735.88;5059013;28;19950;-89
2022/08/19 08:17:14;;;;;;;;;;;;;;;30.17;100.00;98729.97;5058510;28;19916;-89
2022/08/19 08:19:43;;;;;;;;;;;;;;;29.41;100.00;98743.19;5059414;28;20392;-89
2022/08/19 08:23:21;;;;;;;;;;;;;;;30.07;100.00;98735.56;5051642;28;19967;-89
2022/08/19 08:24:54;;;;;;;;;;;;;;;29.27;100.00;98743.97;5060740;28;20605;-88
2022/08/19 08:27:19;;;;;;;;;;;;;;;27.99;100.00;98754.59;5073209;28;19941;-87
2022/08/19 08:29:45;;;;;;;;;;;;;;;27.67;100.00;98743.00;5093015;28;19916;-87
2022/08/19 08:32:10;;;;;;;;;;;;;;;28.07;100.00;98744.00;5075126;28;19916;-87
2022/08/19 08:34:36;;;;;;;;;;;;;;;27.75;100.00;98743.00;5073314;28;20251;-87
2022/08/19 08:37:03;;;;;;;;;;;;;;;27.74;100.00;98746.63;5090671;28;19920;-87
2022/08/19 08:39:28;;;;;;;;;;;;;;;28.68;100.00;98750.50;5071056;28;19920;-87
2022/08/19 08:42:13;;;;;;;;;;;;;;;27.98;100.00;98755.59;5056892;28;19934;-87
2022/08/19 08:44:45;;;;;;;;;;;;;;;28.60;100.00;98753.16;5073317;28;19923;-88
2022/08/19 08:47:12;;;;;;;;;;;;;;;28.58;100.00;98755.19;5045117;28;19916;-88
2022/08/19 08:49:46;;;;;;;;;;;;;;;29.53;100.00;98751.56;5059551;28;20327;-88
2022/08/19 08:52:22;;;;;;;;;;;;;;;29.52;100.00;98757.88;5073524;28;19959;-89
2022/08/19 08:54:48;;;;;;;;;;;;;;;29.32;100.00;98750.38;5051283;28;20000;-89
2022/08/19 08:57:18;;;;;;;;;;;;;;;29.77;100.00;98745.28;5064924;28;19966;-89
2022/08/19 08:59:43;;;;;;;;;;;;;;;30.41;97.62;98742.22;5054869;28;19920;-89
2022/08/19 09:02:09;;;;;;;;;;;;;;;31.04;96.67;98745.28;5072522;28;19938;-88
2022/08/19 09:04:35;;;;;;;;;;;;;;;29.84;100.00;98759.50;5090429;28;19924;-88
2022/08/19 09:07:16;;;;;;;;;;;;;;;29.93;100.00;98760.25;5075808;28;19916;-88
2022/08/19 09:09:51;;;;;;;;;;;;;;;29.13;100.00;98753.50;5111319;27;19920;-88
2022/08/19 09:12:20;;;;;;;;;;;;;;;29.93;100.00;98755.75;5065261;28;19920;-89
2022/08/19 09:14:53;;;;;;;;;;;;;;;30.69;93.84;98738.91;5094994;28;19915;-88
2022/08/19 09:17:20;;;;;;;;;;;;;;;31.56;89.88;98746.88;5096120;28;19935;-88
2022/08/19 09:19:48;;;;;;;;;;;;;;;32.28;87.47;98737.84;5095055;28;19966;-87
2022/08/19 09:22:14;;;;;;;;;;;;;;;33.80;76.65;98738.59;5094337;28;19916;-88
2022/08/19 09:24:40;;;;;;;;;;;;;;;31.90;84.20;98742.66;5076658;28;20500;-88
2022/08/19 09:27:05;;;;;;;;;;;;;;;31.73;83.18;98741.31;5096237;28;19912;-88
2022/08/19 09:29:34;;;;;;;;;;;;;;;30.59;91.20;98744.50;5096558;28;20421;-88
2022/08/19 09:31:59;;;;;;;;;;;;;;;30.47;89.69;98745.97;5085055;28;19985;-89
2022/08/19 09:34:25;;;;;;;;;;;;;;;30.92;89.78;98738.81;5084173;28;19916;-88
2022/08/19 09:36:55;;;;;;;;;;;;;;;31.25;88.97;98736.53;5096347;28;19918;-89
2022/08/19 09:39:20;;;;;;;;;;;;;;;32.94;84.29;98735.75;5067827;28;19916;-88
2022/08/19 09:41:45;;;;;;;;;;;;;;;32.47;81.73;98738.97;5063598;28;19943;-89
2022/08/19 09:44:13;;;;;;;;;;;;;;;31.41;87.10;98736.31;5103565;28;20022;-89
2022/08/19 09:46:38;;;;;;;;;;;;;;;31.46;82.70;98733.09;5081117;28;19968;-88
2022/08/19 09:49:06;;;;;;;;;;;;;;;32.13;84.63;98736.31;5074875;28;19912;-89
2022/08/19 09:51:31;;;;;;;;;;;;;;;30.03;90.20;98745.69;5096518;27;19916;-90
2022/08/19 09:53:58;;;;;;;;;;;;;;;31.34;88.16;98737.22;5105186;27;19936;-88
2022/08/19 09:56:23;;;;;;;;;;;;;;;29.45;95.85;98747.16;5095456;27;19919;-88
2022/08/19 09:58:49;;;;;;;;;;;;;;;29.46;95.27;98747.97;5116255;27;19911;-88
2022/08/19 10:01:25;;;;;;;;;;;;;;;30.54;92.96;98741.56;5098019;27;20018;-88
2022/08/19 10:03:53;;;;;;;;;;;;;;;30.54;85.50;98741.56;5096852;27;20594;-89
2022/08/19 10:06:18;;;;;;;;;;;;;;;31.73;84.29;98741.31;5089705;27;19922;-89
2022/08/19 10:08:44;;;;;;;;;;;;;;;33.04;79.01;98733.50;5079535;27;19920;-88
2022/08/19 10:11:09;;;;;;;;;;;;;;;31.56;85.22;98740.75;5063357;27;19979;-89
2022/08/19 10:13:35;;;;;;;;;;;;;;;32.43;81.20;98736.91;5082661;28;20395;-88
2022/08/19 10:16:08;;;;;;;;;;;;;;;32.30;77.45;98745.66;5102868;27;19918;-88
2022/08/19 10:18:34;;;;;;;;;;;;;;;31.92;77.75;98739.81;5080542;27;19934;-89
2022/08/19 10:21:10;;;;;;;;;;;;;;;31.85;79.73;98735.25;5081786;28;19916;-88
2022/08/19 10:23:36;;;;;;;;;;;;;;;32.44;76.41;98727.91;5092711;27;20346;-89
2022/08/19 10:26:03;;;;;;;;;;;;;;;30.87;84.72;98744.69;5080712;27;19972;-89
2022/08/19 10:28:28;;;;;;;;;;;;;;;30.55;87.63;98737.91;5077817;27;19925;-89
2022/08/19 10:30:53;;;;;;;;;;;;;;;31.96;78.70;98725.97;5080969;27;19912;-89
2022/08/19 10:33:18;;;;;;;;;;;;;;;32.09;77.12;98728.72;5106996;27;19912;-89
2022/08/19 10:35:46;;;;;;;;;;;;;;;31.88;83.22;98728.72;5097400;28;20433;-89
2022/08/19 10:38:11;;;;;;;;;;;;;;;32.45;73.49;98717.03;5084922;27;19920;-88
2022/08/19 10:40:37;;;;;;;;;;;;;;;31.91;72.99;98716.84;5113598;27;19962;-89
2022/08/19 10:43:02;;;;;;;;;;;;;;;31.92;68.98;98719.34;5083795;27;19915;-88
2022/08/19 10:45:27;;;;;;;;;;;;;;;32.71;71.24;98719.03;5089106;28;19951;-88
2022/08/19 10:47:53;;;;;;;;;;;;;;;32.03;77.03;98718.00;5102426;27;19916;-89
2022/08/19 10:53:11;;;;;;;;;;;;;;;31.80;75.20;98712.91;5090746;28;19954;-89
2022/08/19 10:58:23;;;;;;;;;;;;;;;31.03;72.82;98706.41;5114672;27;19965;-89
2022/08/19 11:00:53;;;;;;;;;;;;;;;31.78;70.21;98712.25;5072648;27;19925;-88
2022/08/19 11:03:18;;;;;;;;;;;;;;;32.35;68.98;98708.59;5083447;27;20010;-85
2022/08/19 11:05:43;;;;;;;;;;;;;;;32.96;63.38;98709.69;5075317;28;20002;-88
2022/08/19 11:08:11;;;;;;;;;;;;;;;33.71;64.20;98708.63;5100699;28;20450;-89
2022/08/19 11:10:37;;;;;;;;;;;;;;;33.55;61.95;98709.00;5082798;27;19916;-85
2022/08/19 11:13:02;;;;;;;;;;;;;;;33.75;63.11;98693.00;5111391;27;19916;-87
2022/08/19 11:15:28;;;;;;;;;;;;;;;33.80;61.89;98701.22;5094995;27;20014;-88
2022/08/19 11:17:54;;;;;;;;;;;;;;;34.04;58.96;98701.63;5094852;27;19918;-87
2022/08/19 11:20:19;;;;;;;;;;;;;;;33.59;61.63;98710.25;5077188;27;20808;-85
2022/08/19 11:22:45;;;;;;;;;;;;;;;32.03;67.83;98713.50;5093831;27;19919;-86
2022/08/19 11:25:10;;;;;;;;;;;;;;;33.18;65.76;98700.53;5073043;27;20509;-88
2022/08/19 11:27:41;;;;;;;;;;;;;;;33.61;66.08;98697.53;5083285;27;19919;-87
2022/08/19 11:30:07;;;;;;;;;;;;;;;34.01;63.17;98700.19;5091781;27;19916;-88
2022/08/19 11:32:33;;;;;;;;;;;;;;;33.09;66.08;98699.06;5095603;27;19985;-87
2022/08/19 11:34:58;;;;;;;;;;;;;;;31.59;73.90;98703.94;5095162;27;20263;-87
2022/08/19 11:37:34;;;;;;;;;;;;;;;;;;;;;
2022/08/19 11:39:59;;;;;;;;;;;;;;;31.94;64.46;98711.97;5099577;27;19920;-87
2022/08/19 11:45:09;;;;;;;;;;;;;;;35.33;52.56;98692.72;5103934;27;19923;-87
2022/08/19 11:47:41;;;;;;;;;;;;;;;32.78;62.01;98702.25;5078507;27;19919;-87
2022/08/19 11:50:07;;;;;;;;;;;;;;;35.06;61.37;98685.88;5070965;28;19924;-87
2022/08/19 11:52:38;;;;;;;;;;;;;;;34.85;51.77;98689.66;5078541;28;19916;-88
2022/08/19 11:55:03;;;;;;;;;;;;;;;33.28;59.59;98698.31;5071662;28;19959;-87
2022/08/19 11:57:29;;;;;;;;;;;;;;;33.70;59.27;98690.94;5083980;27;19943;-88
2022/08/19 11:59:56;;;;;;;;;;;;;;;34.82;50.71;98682.91;5095021;28;20926;-88
2022/08/19 12:02:23;;;;;;;;;;;;;;;33.78;54.69;98684.59;5098834;27;19920;-88
2022/08/19 12:04:51;;;;;;;;;;;;;;;34.97;57.82;98678.09;5083644;28;19954;-87
2022/08/19 12:07:16;;;;;;;;;;;;;;;33.77;56.76;98685.59;5095151;27;19916;-87
2022/08/19 12:09:45;;;;;;;;;;;;;;;33.13;62.94;98678.97;5088179;27;19987;-92
2022/08/19 12:12:19;;;;;;;;;;;;;;;32.90;67.15;98674.78;5100885;27;19922;-90
2022/08/19 12:14:46;;;;;;;;;;;;;;;35.12;60.15;98668.97;5078473;28;19916;-94
2022/08/19 12:17:15;;;;;;;;;;;;;;;33.05;67.70;98674.66;5104262;28;19960;-85
2022/08/19 12:19:43;;;;;;;;;;;;;;;32.91;65.33;98672.94;5079869;27;19936;-87
2022/08/19 12:22:18;;;;;;;;;;;;;;;;;;;;;
2022/08/19 12:25:20;;;;;;;;;;;;;;;36.24;55.52;98661.00;5101715;27;19911;-87
2022/08/19 12:27:48;;;;;;;;;;;;;;;33.74;57.21;98665.47;5081567;27;19994;-87
2022/08/19 12:30:17;;;;;;;;;;;;;;;35.53;52.75;98654.22;5086040;27;19916;-89
2022/08/19 12:32:42;;;;;;;;;;;;;;;34.51;55.86;98660.38;5075716;27;19934;-89
2022/08/19 12:35:10;;;;;;;;;;;;;;;34.52;54.21;98654.00;5077226;27;19920;-90
2022/08/19 12:37:35;;;;;;;;;;;;;;;33.98;58.56;98652.47;5067072;28;19920;-90
2022/08/19 12:40:00;;;;;;;;;;;;;;;34.15;58.63;98660.94;5070525;28;19963;-89
2022/08/19 12:42:26;;;;;;;;;;;;;;;34.80;56.57;98652.84;5090918;28;20330;-90
2022/08/19 12:44:53;;;;;;;;;;;;;;;34.79;55.91;98651.22;5096628;27;19955;-89
2022/08/19 12:47:19;;;;;;;;;;;;;;;35.33;51.99;98641.00;5091872;28;19922;-89
2022/08/19 12:49:45;;;;;;;;;;;;;;;34.13;59.47;98652.28;5095970;28;19916;-91
2022/08/19 12:52:15;;;;;;;;;;;;;;;34.90;53.46;98644.38;5096994;27;19920;-89
2022/08/19 12:54:43;;;;;;;;;;;;;;;34.78;52.05;98639.72;5078949;28;19938;-90
2022/08/19 12:57:09;;;;;;;;;;;;;;;34.88;55.33;98641.91;5076540;27;20510;-89
2022/08/19 12:59:36;;;;;;;;;;;;;;;34.22;54.01;98650.22;5095892;28;19956;-90
2022/08/19 13:02:02;;;;;;;;;;;;;;;34.12;54.68;98640.78;5076247;28;19924;-91
2022/08/19 13:04:27;;;;;;;;;;;;;;;31.78;63.77;98643.84;5087282;28;19926;-91
2022/08/19 13:06:53;;;;;;;;;;;;;;;32.61;64.27;98640.44;5082808;28;19916;-90
2022/08/19 13:09:18;;;;;;;;;;;;;;;33.71;57.63;98633.00;5071801;28;19966;-91
2022/08/19 13:11:44;;;;;;;;;;;;;;;34.37;54.40;98640.06;5087873;28;19926;-90
2022/08/19 13:14:10;;;;;;;;;;;;;;;34.68;51.12;98635.84;5080259;28;19911;-90
2022/08/19 13:16:36;;;;;;;;;;;;;;;32.34;54.02;98642.97;5076996;28;19964;-90
2022/08/19 13:19:04;;;;;;;;;;;;;;;31.64;60.48;98640.28;5065348;28;20108;-90
2022/08/19 13:21:30;;;;;;;;;;;;;;;32.41;55.80;98638.50;5069476;28;19938;-90
2022/08/19 13:23:55;;;;;;;;;;;;;;;33.81;55.37;98637.94;5078373;28;19920;-91
2022/08/19 13:26:20;;;;;;;;;;;;;;;32.74;58.46;98643.16;5103821;27;19922;-90
2022/08/19 13:34:15;;;;;;;;;;;;;;;33.00;52.82;98636.22;5101733;28;19930;-91
2022/08/19 13:36:40;;;;;;;;;;;;;;;31.11;62.74;98642.47;5092848;27;19919;-90
2022/08/19 13:39:07;;;;;;;;;;;;;;;32.05;60.86;98639.53;5078411;27;19915;-90
2022/08/19 13:41:33;;;;;;;;;;;;;;;32.49;61.41;98629.50;5079803;27;20011;-91
2022/08/19 13:43:58;;;;;;;;;;;;;;;32.82;60.44;98623.47;5078899;27;20655;-88